sensor_id;sensor_type;location;lat;lon;timestamp;P1;durP1;ratioP1;P2;durP2;ratioP2
73951;SDS011;62304;47.662;18.324;2023-08-30T00:01:23;10.67;;;5.37;;
73951;SDS011;62304;47.662;18.324;2023-08-30T00:04:27;9.13;;;4.82;;
73951;SDS011;62304;47.662;18.324;2023-08-30T00:07:29;10.35;;;4.65;;
73951;SDS011;62304;47.662;18.324;2023-08-30T00:10:33;8.95;;;5.20;;
73951;SDS011;62304;47.662;18.324;2023-08-30T00:13:36;10.13;;;5.20;;
73951;SDS011;62304;47.662;18.324;2023-08-30T00:16:39;10.60;;;4.93;;
73951;SDS011;62304;47.662;18.324;2023-08-30T00:19:42;8.45;;;4.87;;
73951;SDS011;62304;47.662;18.324;2023-08-30T00:22:45;9.93;;;4.62;;
73951;SDS011;62304;47.662;18.324;2023-08-30T00:25:48;9.05;;;4.68;;
73951;SDS011;62304;47.662;18.324;2023-08-30T00:28:51;9.57;;;4.80;;
73951;SDS011;62304;47.662;18.324;2023-08-30T00:31:54;9.03;;;5.07;;
73951;SDS011;62304;47.662;18.324;2023-08-30T00:34:58;9.80;;;5.57;;
73951;SDS011;62304;47.662;18.324;2023-08-30T00:38:00;9.38;;;4.95;;
73951;SDS011;62304;47.662;18.324;2023-08-30T00:41:04;9.90;;;4.97;;
73951;SDS011;62304;47.662;18.324;2023-08-30T00:44:06;11.50;;;5.28;;
73951;SDS011;62304;47.662;18.324;2023-08-30T00:47:10;11.40;;;5.63;;
73951;SDS011;62304;47.662;18.324;2023-08-30T00:50:13;10.77;;;5.95;;
73951;SDS011;62304;47.662;18.324;2023-08-30T00:53:17;10.68;;;5.55;;
73951;SDS011;62304;47.662;18.324;2023-08-30T00:56:20;10.55;;;5.30;;
73951;SDS011;62304;47.662;18.324;2023-08-30T00:59:24;11.40;;;5.45;;
73951;SDS011;62304;47.662;18.324;2023-08-30T01:02:28;10.63;;;5.80;;
73951;SDS011;62304;47.662;18.324;2023-08-30T01:05:31;11.10;;;5.75;;
73951;SDS011;62304;47.662;18.324;2023-08-30T01:08:35;12.40;;;5.95;;
73951;SDS011;62304;47.662;18.324;2023-08-30T01:15:06;11.02;;;5.20;;
73951;SDS011;62304;47.662;18.324;2023-08-30T01:18:32;11.17;;;5.20;;
73951;SDS011;62304;47.662;18.324;2023-08-30T01:21:42;11.85;;;5.93;;
73951;SDS011;62304;47.662;18.324;2023-08-30T01:25:55;10.07;;;5.35;;
73951;SDS011;62304;47.662;18.324;2023-08-30T01:28:44;10.65;;;5.25;;
73951;SDS011;62304;47.662;18.324;2023-08-30T01:31:48;9.73;;;5.22;;
73951;SDS011;62304;47.662;18.324;2023-08-30T01:34:52;13.10;;;4.80;;
73951;SDS011;62304;47.662;18.324;2023-08-30T01:37:55;10.93;;;5.50;;
73951;SDS011;62304;47.662;18.324;2023-08-30T01:40:59;11.10;;;5.00;;
73951;SDS011;62304;47.662;18.324;2023-08-30T01:44:05;10.77;;;4.87;;
73951;SDS011;62304;47.662;18.324;2023-08-30T01:47:09;9.82;;;4.90;;
73951;SDS011;62304;47.662;18.324;2023-08-30T01:50:14;10.60;;;4.50;;
73951;SDS011;62304;47.662;18.324;2023-08-30T01:53:18;7.78;;;3.70;;
73951;SDS011;62304;47.662;18.324;2023-08-30T01:56:22;8.13;;;4.50;;
73951;SDS011;62304;47.662;18.324;2023-08-30T01:59:25;10.90;;;4.32;;
73951;SDS011;62304;47.662;18.324;2023-08-30T02:02:29;8.90;;;4.25;;
73951;SDS011;62304;47.662;18.324;2023-08-30T02:05:33;8.73;;;4.20;;
73951;SDS011;62304;47.662;18.324;2023-08-30T02:08:44;10.60;;;4.18;;
73951;SDS011;62304;47.662;18.324;2023-08-30T02:11:56;7.55;;;3.72;;
73951;SDS011;62304;47.662;18.324;2023-08-30T02:15:07;7.65;;;3.65;;
73951;SDS011;62304;47.662;18.324;2023-08-30T02:18:11;10.30;;;4.30;;
73951;SDS011;62304;47.662;18.324;2023-08-30T02:21:13;8.07;;;4.13;;
73951;SDS011;62304;47.662;18.324;2023-08-30T02:24:17;9.25;;;4.20;;
73951;SDS011;62304;47.662;18.324;2023-08-30T02:27:20;8.98;;;4.62;;
73951;SDS011;62304;47.662;18.324;2023-08-30T02:30:23;12.63;;;4.30;;
73951;SDS011;62304;47.662;18.324;2023-08-30T02:33:27;9.45;;;4.82;;
73951;SDS011;62304;47.662;18.324;2023-08-30T02:36:31;9.53;;;4.70;;
73951;SDS011;62304;47.662;18.324;2023-08-30T02:39:34;9.18;;;4.85;;
73951;SDS011;62304;47.662;18.324;2023-08-30T02:42:37;8.82;;;4.75;;
73951;SDS011;62304;47.662;18.324;2023-08-30T02:45:40;11.43;;;5.28;;
73951;SDS011;62304;47.662;18.324;2023-08-30T02:48:43;9.18;;;4.82;;
73951;SDS011;62304;47.662;18.324;2023-08-30T02:51:46;9.63;;;4.80;;
73951;SDS011;62304;47.662;18.324;2023-08-30T02:54:49;10.38;;;5.12;;
73951;SDS011;62304;47.662;18.324;2023-08-30T02:57:52;8.63;;;5.00;;
73951;SDS011;62304;47.662;18.324;2023-08-30T03:00:55;10.23;;;5.10;;
73951;SDS011;62304;47.662;18.324;2023-08-30T03:03:58;9.55;;;5.20;;
73951;SDS011;62304;47.662;18.324;2023-08-30T03:07:02;9.40;;;5.17;;
73951;SDS011;62304;47.662;18.324;2023-08-30T03:10:06;10.55;;;5.35;;
73951;SDS011;62304;47.662;18.324;2023-08-30T03:13:11;11.43;;;5.68;;
73951;SDS011;62304;47.662;18.324;2023-08-30T03:16:14;9.85;;;4.93;;
73951;SDS011;62304;47.662;18.324;2023-08-30T03:19:18;10.90;;;4.47;;
73951;SDS011;62304;47.662;18.324;2023-08-30T03:22:21;9.47;;;4.87;;
73951;SDS011;62304;47.662;18.324;2023-08-30T03:25:24;8.98;;;4.78;;
73951;SDS011;62304;47.662;18.324;2023-08-30T03:28:31;10.88;;;5.15;;
73951;SDS011;62304;47.662;18.324;2023-08-30T03:31:34;10.15;;;5.00;;
73951;SDS011;62304;47.662;18.324;2023-08-30T03:34:37;12.35;;;5.65;;
73951;SDS011;62304;47.662;18.324;2023-08-30T03:37:40;10.80;;;5.47;;
73951;SDS011;62304;47.662;18.324;2023-08-30T03:40:44;10.30;;;5.22;;
73951;SDS011;62304;47.662;18.324;2023-08-30T03:43:47;10.80;;;5.68;;
73951;SDS011;62304;47.662;18.324;2023-08-30T03:46:50;12.32;;;6.43;;
73951;SDS011;62304;47.662;18.324;2023-08-30T03:49:54;11.40;;;5.97;;
73951;SDS011;62304;47.662;18.324;2023-08-30T03:52:56;11.33;;;6.83;;
73951;SDS011;62304;47.662;18.324;2023-08-30T03:55:59;11.23;;;6.90;;
73951;SDS011;62304;47.662;18.324;2023-08-30T03:59:02;13.00;;;6.20;;
73951;SDS011;62304;47.662;18.324;2023-08-30T04:02:07;11.10;;;6.80;;
73951;SDS011;62304;47.662;18.324;2023-08-30T04:05:11;10.50;;;6.70;;
73951;SDS011;62304;47.662;18.324;2023-08-30T04:08:14;14.10;;;7.47;;
73951;SDS011;62304;47.662;18.324;2023-08-30T04:11:17;12.23;;;7.18;;
73951;SDS011;62304;47.662;18.324;2023-08-30T04:14:20;11.60;;;7.03;;
73951;SDS011;62304;47.662;18.324;2023-08-30T04:17:25;13.07;;;7.28;;
73951;SDS011;62304;47.662;18.324;2023-08-30T04:20:28;12.65;;;7.50;;
73951;SDS011;62304;47.662;18.324;2023-08-30T04:23:31;13.50;;;7.23;;
73951;SDS011;62304;47.662;18.324;2023-08-30T04:26:34;13.70;;;6.87;;
73951;SDS011;62304;47.662;18.324;2023-08-30T04:29:37;10.43;;;6.97;;
73951;SDS011;62304;47.662;18.324;2023-08-30T04:32:41;11.35;;;6.70;;
73951;SDS011;62304;47.662;18.324;2023-08-30T04:35:44;13.15;;;8.18;;
73951;SDS011;62304;47.662;18.324;2023-08-30T04:38:47;13.70;;;6.47;;
73951;SDS011;62304;47.662;18.324;2023-08-30T04:42:04;13.95;;;6.85;;
73951;SDS011;62304;47.662;18.324;2023-08-30T04:45:07;11.35;;;6.55;;
73951;SDS011;62304;47.662;18.324;2023-08-30T04:48:12;10.85;;;6.93;;
73951;SDS011;62304;47.662;18.324;2023-08-30T04:51:17;12.57;;;7.45;;
73951;SDS011;62304;47.662;18.324;2023-08-30T04:54:20;11.97;;;6.60;;
73951;SDS011;62304;47.662;18.324;2023-08-30T04:57:23;11.18;;;6.18;;
73951;SDS011;62304;47.662;18.324;2023-08-30T05:00:27;13.88;;;6.37;;
73951;SDS011;62304;47.662;18.324;2023-08-30T05:03:30;10.90;;;7.05;;
73951;SDS011;62304;47.662;18.324;2023-08-30T05:06:34;11.00;;;6.62;;
73951;SDS011;62304;47.662;18.324;2023-08-30T05:09:37;11.87;;;6.47;;
73951;SDS011;62304;47.662;18.324;2023-08-30T05:12:44;10.63;;;5.87;;
73951;SDS011;62304;47.662;18.324;2023-08-30T05:15:52;10.30;;;5.85;;
73951;SDS011;62304;47.662;18.324;2023-08-30T05:18:55;10.80;;;5.93;;
73951;SDS011;62304;47.662;18.324;2023-08-30T05:21:58;10.40;;;5.25;;
73951;SDS011;62304;47.662;18.324;2023-08-30T05:25:01;8.43;;;5.07;;
73951;SDS011;62304;47.662;18.324;2023-08-30T05:28:05;11.52;;;4.95;;
73951;SDS011;62304;47.662;18.324;2023-08-30T05:31:08;10.38;;;5.37;;
73951;SDS011;62304;47.662;18.324;2023-08-30T05:34:12;9.00;;;5.68;;
73951;SDS011;62304;47.662;18.324;2023-08-30T05:37:15;10.27;;;5.40;;
73951;SDS011;62304;47.662;18.324;2023-08-30T05:40:19;10.43;;;5.47;;
73951;SDS011;62304;47.662;18.324;2023-08-30T05:43:22;8.45;;;5.03;;
73951;SDS011;62304;47.662;18.324;2023-08-30T05:46:25;10.15;;;4.82;;
73951;SDS011;62304;47.662;18.324;2023-08-30T05:49:28;8.70;;;4.93;;
73951;SDS011;62304;47.662;18.324;2023-08-30T05:52:31;8.88;;;4.93;;
73951;SDS011;62304;47.662;18.324;2023-08-30T05:55:35;8.10;;;4.30;;
73951;SDS011;62304;47.662;18.324;2023-08-30T05:58:40;7.60;;;4.75;;
73951;SDS011;62304;47.662;18.324;2023-08-30T06:01:43;10.60;;;5.25;;
73951;SDS011;62304;47.662;18.324;2023-08-30T06:04:47;9.18;;;5.28;;
73951;SDS011;62304;47.662;18.324;2023-08-30T06:07:50;9.32;;;5.15;;
73951;SDS011;62304;47.662;18.324;2023-08-30T06:10:53;8.17;;;5.20;;
73951;SDS011;62304;47.662;18.324;2023-08-30T06:13:56;10.90;;;5.35;;
73951;SDS011;62304;47.662;18.324;2023-08-30T06:17:01;8.80;;;4.85;;
73951;SDS011;62304;47.662;18.324;2023-08-30T06:20:04;10.63;;;5.30;;
73951;SDS011;62304;47.662;18.324;2023-08-30T06:23:08;9.15;;;5.15;;
73951;SDS011;62304;47.662;18.324;2023-08-30T06:26:13;8.40;;;5.17;;
73951;SDS011;62304;47.662;18.324;2023-08-30T06:29:16;8.55;;;4.87;;
73951;SDS011;62304;47.662;18.324;2023-08-30T06:32:19;8.65;;;4.87;;
73951;SDS011;62304;47.662;18.324;2023-08-30T06:35:23;9.15;;;4.97;;
73951;SDS011;62304;47.662;18.324;2023-08-30T06:38:26;8.95;;;4.85;;
73951;SDS011;62304;47.662;18.324;2023-08-30T06:41:29;9.33;;;5.27;;
73951;SDS011;62304;47.662;18.324;2023-08-30T06:44:32;9.85;;;4.93;;
73951;SDS011;62304;47.662;18.324;2023-08-30T06:47:35;9.15;;;5.18;;
73951;SDS011;62304;47.662;18.324;2023-08-30T06:50:38;11.65;;;5.70;;
73951;SDS011;62304;47.662;18.324;2023-08-30T06:53:41;9.63;;;5.53;;
73951;SDS011;62304;47.662;18.324;2023-08-30T06:56:56;10.53;;;5.50;;
73951;SDS011;62304;47.662;18.324;2023-08-30T07:00:03;9.65;;;5.28;;
73951;SDS011;62304;47.662;18.324;2023-08-30T07:03:10;9.73;;;5.10;;
73951;SDS011;62304;47.662;18.324;2023-08-30T07:06:13;11.88;;;5.10;;
73951;SDS011;62304;47.662;18.324;2023-08-30T07:09:16;8.80;;;4.95;;
73951;SDS011;62304;47.662;18.324;2023-08-30T07:12:19;9.47;;;4.67;;
73951;SDS011;62304;47.662;18.324;2023-08-30T07:15:22;9.48;;;4.25;;
73951;SDS011;62304;47.662;18.324;2023-08-30T07:18:25;8.68;;;4.53;;
73951;SDS011;62304;47.662;18.324;2023-08-30T07:21:28;8.30;;;4.40;;
73951;SDS011;62304;47.662;18.324;2023-08-30T07:24:32;8.85;;;4.55;;
73951;SDS011;62304;47.662;18.324;2023-08-30T07:27:34;8.70;;;4.87;;
73951;SDS011;62304;47.662;18.324;2023-08-30T07:30:40;12.32;;;4.45;;
73951;SDS011;62304;47.662;18.324;2023-08-30T07:33:44;8.60;;;4.65;;
73951;SDS011;62304;47.662;18.324;2023-08-30T07:36:47;9.07;;;4.45;;
73951;SDS011;62304;47.662;18.324;2023-08-30T07:39:51;11.20;;;4.35;;
73951;SDS011;62304;47.662;18.324;2023-08-30T07:42:55;10.03;;;4.03;;
73951;SDS011;62304;47.662;18.324;2023-08-30T07:46:01;10.63;;;4.60;;
73951;SDS011;62304;47.662;18.324;2023-08-30T07:49:04;9.55;;;4.40;;
73951;SDS011;62304;47.662;18.324;2023-08-30T07:52:07;7.85;;;3.72;;
73951;SDS011;62304;47.662;18.324;2023-08-30T07:55:14;11.50;;;4.55;;
73951;SDS011;62304;47.662;18.324;2023-08-30T07:58:17;11.33;;;4.13;;
73951;SDS011;62304;47.662;18.324;2023-08-30T08:01:20;8.75;;;4.22;;
73951;SDS011;62304;47.662;18.324;2023-08-30T08:04:24;10.38;;;4.05;;
73951;SDS011;62304;47.662;18.324;2023-08-30T08:07:26;7.85;;;3.92;;
73951;SDS011;62304;47.662;18.324;2023-08-30T08:10:33;9.98;;;4.22;;
73951;SDS011;62304;47.662;18.324;2023-08-30T08:13:37;7.00;;;3.87;;
73951;SDS011;62304;47.662;18.324;2023-08-30T08:16:40;8.15;;;4.32;;
73951;SDS011;62304;47.662;18.324;2023-08-30T08:19:43;8.63;;;3.92;;
73951;SDS011;62304;47.662;18.324;2023-08-30T08:22:47;7.93;;;3.30;;
73951;SDS011;62304;47.662;18.324;2023-08-30T08:25:56;7.15;;;3.60;;
73951;SDS011;62304;47.662;18.324;2023-08-30T08:29:00;7.27;;;2.80;;
73951;SDS011;62304;47.662;18.324;2023-08-30T08:32:03;6.62;;;2.70;;
73951;SDS011;62304;47.662;18.324;2023-08-30T08:35:06;6.05;;;2.83;;
73951;SDS011;62304;47.662;18.324;2023-08-30T08:38:10;7.00;;;2.87;;
73951;SDS011;62304;47.662;18.324;2023-08-30T08:41:14;8.10;;;3.12;;
73951;SDS011;62304;47.662;18.324;2023-08-30T08:44:18;9.13;;;2.93;;
73951;SDS011;62304;47.662;18.324;2023-08-30T08:47:24;7.62;;;2.97;;
73951;SDS011;62304;47.662;18.324;2023-08-30T08:50:27;6.93;;;3.03;;
73951;SDS011;62304;47.662;18.324;2023-08-30T08:53:32;6.35;;;3.03;;
73951;SDS011;62304;47.662;18.324;2023-08-30T08:56:36;6.65;;;3.12;;
73951;SDS011;62304;47.662;18.324;2023-08-30T08:59:40;5.27;;;2.93;;
73951;SDS011;62304;47.662;18.324;2023-08-30T09:02:44;6.75;;;3.15;;
73951;SDS011;62304;47.662;18.324;2023-08-30T09:05:49;6.53;;;3.10;;
73951;SDS011;62304;47.662;18.324;2023-08-30T09:08:53;9.40;;;3.05;;
73951;SDS011;62304;47.662;18.324;2023-08-30T09:11:57;7.40;;;3.17;;
73951;SDS011;62304;47.662;18.324;2023-08-30T09:15:00;6.47;;;3.23;;
73951;SDS011;62304;47.662;18.324;2023-08-30T09:18:03;5.45;;;2.75;;
73951;SDS011;62304;47.662;18.324;2023-08-30T09:21:06;5.60;;;2.83;;
73951;SDS011;62304;47.662;18.324;2023-08-30T09:24:10;7.35;;;3.72;;
73951;SDS011;62304;47.662;18.324;2023-08-30T09:27:13;5.95;;;2.60;;
73951;SDS011;62304;47.662;18.324;2023-08-30T09:30:23;5.73;;;2.60;;
73951;SDS011;62304;47.662;18.324;2023-08-30T09:33:32;5.97;;;2.62;;
73951;SDS011;62304;47.662;18.324;2023-08-30T09:39:58;5.00;;;2.25;;
73951;SDS011;62304;47.662;18.324;2023-08-30T09:43:01;5.47;;;2.42;;
73951;SDS011;62304;47.662;18.324;2023-08-30T09:46:14;7.83;;;2.53;;
73951;SDS011;62304;47.662;18.324;2023-08-30T09:49:25;4.28;;;2.17;;
73951;SDS011;62304;47.662;18.324;2023-08-30T09:52:28;4.15;;;1.87;;
73951;SDS011;62304;47.662;18.324;2023-08-30T09:55:33;4.82;;;2.42;;
73951;SDS011;62304;47.662;18.324;2023-08-30T09:58:36;5.60;;;1.80;;
73951;SDS011;62304;47.662;18.324;2023-08-30T10:01:42;3.80;;;1.93;;
73951;SDS011;62304;47.662;18.324;2023-08-30T10:04:46;4.68;;;2.12;;
73951;SDS011;62304;47.662;18.324;2023-08-30T10:07:52;6.90;;;2.50;;
73951;SDS011;62304;47.662;18.324;2023-08-30T10:10:57;6.07;;;2.50;;
73951;SDS011;62304;47.662;18.324;2023-08-30T10:14:04;5.25;;;2.40;;
73951;SDS011;62304;47.662;18.324;2023-08-30T10:17:09;4.93;;;2.20;;
73951;SDS011;62304;47.662;18.324;2023-08-30T10:20:14;4.68;;;1.90;;
73951;SDS011;62304;47.662;18.324;2023-08-30T10:23:18;5.18;;;1.92;;
73951;SDS011;62304;47.662;18.324;2023-08-30T10:26:23;4.15;;;2.05;;
73951;SDS011;62304;47.662;18.324;2023-08-30T10:29:29;6.53;;;2.20;;
73951;SDS011;62304;47.662;18.324;2023-08-30T10:32:39;7.10;;;1.77;;
73951;SDS011;62304;47.662;18.324;2023-08-30T10:35:46;5.85;;;2.00;;
73951;SDS011;62304;47.662;18.324;2023-08-30T10:38:54;4.57;;;1.90;;
73951;SDS011;62304;47.662;18.324;2023-08-30T10:41:58;5.03;;;1.90;;
73951;SDS011;62304;47.662;18.324;2023-08-30T10:45:04;3.78;;;1.45;;
73951;SDS011;62304;47.662;18.324;2023-08-30T10:48:15;4.40;;;1.43;;
73951;SDS011;62304;47.662;18.324;2023-08-30T10:51:20;4.45;;;2.12;;
73951;SDS011;62304;47.662;18.324;2023-08-30T10:54:40;3.90;;;1.67;;
73951;SDS011;62304;47.662;18.324;2023-08-30T10:57:44;4.95;;;1.45;;
73951;SDS011;62304;47.662;18.324;2023-08-30T11:00:49;3.90;;;1.80;;
73951;SDS011;62304;47.662;18.324;2023-08-30T11:03:53;5.23;;;1.90;;
73951;SDS011;62304;47.662;18.324;2023-08-30T11:07:16;3.87;;;1.55;;
73951;SDS011;62304;47.662;18.324;2023-08-30T11:10:19;7.18;;;2.17;;
73951;SDS011;62304;47.662;18.324;2023-08-30T11:13:23;5.05;;;1.80;;
73951;SDS011;62304;47.662;18.324;2023-08-30T11:16:26;4.28;;;2.08;;
73951;SDS011;62304;47.662;18.324;2023-08-30T11:19:29;4.00;;;1.80;;
73951;SDS011;62304;47.662;18.324;2023-08-30T11:22:43;4.00;;;1.80;;
73951;SDS011;62304;47.662;18.324;2023-08-30T11:25:50;4.62;;;1.90;;
73951;SDS011;62304;47.662;18.324;2023-08-30T11:28:53;4.90;;;2.08;;
73951;SDS011;62304;47.662;18.324;2023-08-30T11:31:58;6.45;;;1.85;;
73951;SDS011;62304;47.662;18.324;2023-08-30T11:35:01;3.87;;;1.67;;
73951;SDS011;62304;47.662;18.324;2023-08-30T11:38:05;5.62;;;1.80;;
73951;SDS011;62304;47.662;18.324;2023-08-30T11:41:07;4.20;;;1.87;;
73951;SDS011;62304;47.662;18.324;2023-08-30T11:44:12;4.15;;;1.80;;
73951;SDS011;62304;47.662;18.324;2023-08-30T11:47:18;3.45;;;1.62;;
73951;SDS011;62304;47.662;18.324;2023-08-30T11:50:31;3.77;;;1.60;;
73951;SDS011;62304;47.662;18.324;2023-08-30T11:53:49;4.32;;;1.48;;
73951;SDS011;62304;47.662;18.324;2023-08-30T11:56:53;3.67;;;1.58;;
73951;SDS011;62304;47.662;18.324;2023-08-30T12:00:06;6.57;;;1.77;;
73951;SDS011;62304;47.662;18.324;2023-08-30T12:03:15;5.30;;;1.60;;
73951;SDS011;62304;47.662;18.324;2023-08-30T12:06:19;3.40;;;1.47;;
73951;SDS011;62304;47.662;18.324;2023-08-30T12:09:31;4.15;;;1.50;;
73951;SDS011;62304;47.662;18.324;2023-08-30T12:12:34;3.92;;;1.50;;
73951;SDS011;62304;47.662;18.324;2023-08-30T12:15:41;3.42;;;1.67;;
73951;SDS011;62304;47.662;18.324;2023-08-30T12:18:46;5.18;;;1.70;;
73951;SDS011;62304;47.662;18.324;2023-08-30T12:21:50;5.57;;;1.70;;
73951;SDS011;62304;47.662;18.324;2023-08-30T12:24:53;4.50;;;2.03;;
73951;SDS011;62304;47.662;18.324;2023-08-30T12:27:56;4.95;;;2.08;;
73951;SDS011;62304;47.662;18.324;2023-08-30T12:30:59;4.53;;;1.70;;
73951;SDS011;62304;47.662;18.324;2023-08-30T12:34:04;4.55;;;2.22;;
73951;SDS011;62304;47.662;18.324;2023-08-30T12:37:07;4.57;;;2.27;;
73951;SDS011;62304;47.662;18.324;2023-08-30T12:40:10;6.50;;;2.47;;
73951;SDS011;62304;47.662;18.324;2023-08-30T12:43:13;4.53;;;2.78;;
73951;SDS011;62304;47.662;18.324;2023-08-30T12:46:17;7.55;;;2.72;;
73951;SDS011;62304;47.662;18.324;2023-08-30T12:49:20;5.10;;;3.00;;
73951;SDS011;62304;47.662;18.324;2023-08-30T12:52:23;5.30;;;3.00;;
73951;SDS011;62304;47.662;18.324;2023-08-30T12:55:26;6.53;;;3.17;;
73951;SDS011;62304;47.662;18.324;2023-08-30T12:58:29;5.25;;;3.45;;
73951;SDS011;62304;47.662;18.324;2023-08-30T13:01:32;5.68;;;3.30;;
73951;SDS011;62304;47.662;18.324;2023-08-30T13:04:35;5.28;;;3.40;;
73951;SDS011;62304;47.662;18.324;2023-08-30T13:07:39;7.43;;;2.87;;
73951;SDS011;62304;47.662;18.324;2023-08-30T13:10:43;4.43;;;2.33;;
73951;SDS011;62304;47.662;18.324;2023-08-30T13:13:46;5.68;;;2.67;;
73951;SDS011;62304;47.662;18.324;2023-08-30T13:16:49;5.90;;;2.50;;
73951;SDS011;62304;47.662;18.324;2023-08-30T13:19:53;6.03;;;2.70;;
73951;SDS011;62304;47.662;18.324;2023-08-30T13:22:56;6.07;;;2.47;;
73951;SDS011;62304;47.662;18.324;2023-08-30T13:25:59;4.87;;;2.28;;
73951;SDS011;62304;47.662;18.324;2023-08-30T13:29:02;5.07;;;2.58;;
73951;SDS011;62304;47.662;18.324;2023-08-30T13:32:05;4.40;;;2.03;;
73951;SDS011;62304;47.662;18.324;2023-08-30T13:35:09;5.05;;;2.20;;
73951;SDS011;62304;47.662;18.324;2023-08-30T13:38:13;4.63;;;2.00;;
73951;SDS011;62304;47.662;18.324;2023-08-30T13:41:16;4.22;;;2.12;;
73951;SDS011;62304;47.662;18.324;2023-08-30T13:44:19;4.72;;;2.42;;
73951;SDS011;62304;47.662;18.324;2023-08-30T13:47:23;4.68;;;2.40;;
73951;SDS011;62304;47.662;18.324;2023-08-30T13:50:26;5.90;;;2.62;;
73951;SDS011;62304;47.662;18.324;2023-08-30T13:53:33;6.27;;;2.83;;
73951;SDS011;62304;47.662;18.324;2023-08-30T13:56:36;6.70;;;2.83;;
73951;SDS011;62304;47.662;18.324;2023-08-30T13:59:42;4.80;;;2.70;;
73951;SDS011;62304;47.662;18.324;2023-08-30T14:02:46;4.93;;;2.60;;
73951;SDS011;62304;47.662;18.324;2023-08-30T14:05:50;6.03;;;2.95;;
73951;SDS011;62304;47.662;18.324;2023-08-30T14:08:53;5.87;;;2.30;;
73951;SDS011;62304;47.662;18.324;2023-08-30T14:11:56;6.15;;;2.30;;
73951;SDS011;62304;47.662;18.324;2023-08-30T14:14:59;5.03;;;2.65;;
73951;SDS011;62304;47.662;18.324;2023-08-30T14:18:03;4.50;;;2.22;;
73951;SDS011;62304;47.662;18.324;2023-08-30T14:21:06;3.90;;;2.10;;
73951;SDS011;62304;47.662;18.324;2023-08-30T14:24:10;4.67;;;2.40;;
73951;SDS011;62304;47.662;18.324;2023-08-30T14:27:13;6.00;;;2.35;;
73951;SDS011;62304;47.662;18.324;2023-08-30T14:30:16;5.47;;;2.60;;
73951;SDS011;62304;47.662;18.324;2023-08-30T14:33:20;4.75;;;2.47;;
73951;SDS011;62304;47.662;18.324;2023-08-30T14:36:23;4.22;;;2.10;;
73951;SDS011;62304;47.662;18.324;2023-08-30T14:39:26;7.27;;;2.40;;
73951;SDS011;62304;47.662;18.324;2023-08-30T14:42:31;4.37;;;2.35;;
73951;SDS011;62304;47.662;18.324;2023-08-30T14:45:35;5.40;;;2.50;;
73951;SDS011;62304;47.662;18.324;2023-08-30T14:48:39;6.85;;;2.60;;
73951;SDS011;62304;47.662;18.324;2023-08-30T14:51:43;6.50;;;2.47;;
73951;SDS011;62304;47.662;18.324;2023-08-30T14:54:46;4.80;;;2.20;;
73951;SDS011;62304;47.662;18.324;2023-08-30T14:57:49;5.40;;;2.28;;
73951;SDS011;62304;47.662;18.324;2023-08-30T15:00:53;4.97;;;2.55;;
73951;SDS011;62304;47.662;18.324;2023-08-30T15:03:57;4.53;;;2.75;;
73951;SDS011;62304;47.662;18.324;2023-08-30T15:07:01;4.85;;;2.33;;
73951;SDS011;62304;47.662;18.324;2023-08-30T15:10:04;4.43;;;2.30;;
73951;SDS011;62304;47.662;18.324;2023-08-30T15:13:09;4.35;;;2.20;;
73951;SDS011;62304;47.662;18.324;2023-08-30T15:16:13;8.02;;;2.35;;
73951;SDS011;62304;47.662;18.324;2023-08-30T15:19:16;4.90;;;2.60;;
73951;SDS011;62304;47.662;18.324;2023-08-30T15:22:20;5.00;;;2.80;;
73951;SDS011;62304;47.662;18.324;2023-08-30T15:25:23;7.07;;;2.50;;
73951;SDS011;62304;47.662;18.324;2023-08-30T15:28:27;4.30;;;2.30;;
73951;SDS011;62304;47.662;18.324;2023-08-30T15:31:31;4.75;;;2.40;;
73951;SDS011;62304;47.662;18.324;2023-08-30T15:34:35;4.55;;;2.50;;
73951;SDS011;62304;47.662;18.324;2023-08-30T15:37:39;4.82;;;2.15;;
73951;SDS011;62304;47.662;18.324;2023-08-30T15:40:42;8.07;;;2.73;;
73951;SDS011;62304;47.662;18.324;2023-08-30T15:43:47;4.87;;;2.53;;
73951;SDS011;62304;47.662;18.324;2023-08-30T15:46:50;4.50;;;2.30;;
73951;SDS011;62304;47.662;18.324;2023-08-30T15:49:54;5.35;;;2.50;;
73951;SDS011;62304;47.662;18.324;2023-08-30T15:52:58;4.40;;;2.28;;
73951;SDS011;62304;47.662;18.324;2023-08-30T15:56:01;4.47;;;2.50;;
73951;SDS011;62304;47.662;18.324;2023-08-30T15:59:05;4.62;;;2.78;;
73951;SDS011;62304;47.662;18.324;2023-08-30T16:02:11;4.37;;;2.37;;
73951;SDS011;62304;47.662;18.324;2023-08-30T16:05:17;5.53;;;2.70;;
73951;SDS011;62304;47.662;18.324;2023-08-30T16:08:21;4.87;;;2.40;;
73951;SDS011;62304;47.662;18.324;2023-08-30T16:11:31;4.68;;;2.85;;
73951;SDS011;62304;47.662;18.324;2023-08-30T16:14:37;4.55;;;2.33;;
73951;SDS011;62304;47.662;18.324;2023-08-30T16:17:44;4.80;;;2.50;;
73951;SDS011;62304;47.662;18.324;2023-08-30T16:20:50;4.85;;;2.53;;
73951;SDS011;62304;47.662;18.324;2023-08-30T16:23:55;5.03;;;2.50;;
73951;SDS011;62304;47.662;18.324;2023-08-30T16:26:59;6.32;;;2.80;;
73951;SDS011;62304;47.662;18.324;2023-08-30T16:30:04;5.18;;;2.78;;
73951;SDS011;62304;47.662;18.324;2023-08-30T16:33:09;6.70;;;2.87;;
73951;SDS011;62304;47.662;18.324;2023-08-30T16:36:14;4.75;;;2.55;;
73951;SDS011;62304;47.662;18.324;2023-08-30T16:39:17;4.50;;;2.70;;
73951;SDS011;62304;47.662;18.324;2023-08-30T16:42:21;4.28;;;2.33;;
73951;SDS011;62304;47.662;18.324;2023-08-30T16:45:25;4.60;;;2.60;;
73951;SDS011;62304;47.662;18.324;2023-08-30T16:48:30;4.75;;;2.90;;
73951;SDS011;62304;47.662;18.324;2023-08-30T16:51:36;4.72;;;3.00;;
73951;SDS011;62304;47.662;18.324;2023-08-30T16:54:45;5.67;;;3.10;;
73951;SDS011;62304;47.662;18.324;2023-08-30T16:57:52;5.72;;;3.22;;
73951;SDS011;62304;47.662;18.324;2023-08-30T17:01:00;5.70;;;3.03;;
73951;SDS011;62304;47.662;18.324;2023-08-30T17:04:04;5.03;;;3.03;;
73951;SDS011;62304;47.662;18.324;2023-08-30T17:07:11;5.80;;;3.10;;
73951;SDS011;62304;47.662;18.324;2023-08-30T17:10:15;5.97;;;2.90;;
73951;SDS011;62304;47.662;18.324;2023-08-30T17:13:23;4.70;;;2.87;;
73951;SDS011;62304;47.662;18.324;2023-08-30T17:16:27;4.72;;;2.70;;
73951;SDS011;62304;47.662;18.324;2023-08-30T17:19:32;5.87;;;3.12;;
73951;SDS011;62304;47.662;18.324;2023-08-30T17:22:37;5.40;;;3.12;;
73951;SDS011;62304;47.662;18.324;2023-08-30T17:25:58;5.03;;;2.73;;
73951;SDS011;62304;47.662;18.324;2023-08-30T17:29:03;6.05;;;3.58;;
73951;SDS011;62304;47.662;18.324;2023-08-30T17:32:07;6.15;;;3.15;;
73951;SDS011;62304;47.662;18.324;2023-08-30T17:35:13;5.43;;;3.47;;
73951;SDS011;62304;47.662;18.324;2023-08-30T17:38:31;6.53;;;3.05;;
73951;SDS011;62304;47.662;18.324;2023-08-30T17:41:37;5.07;;;3.03;;
73951;SDS011;62304;47.662;18.324;2023-08-30T17:44:45;5.00;;;3.00;;
73951;SDS011;62304;47.662;18.324;2023-08-30T17:48:01;5.47;;;3.20;;
73951;SDS011;62304;47.662;18.324;2023-08-30T17:51:07;7.03;;;3.10;;
73951;SDS011;62304;47.662;18.324;2023-08-30T17:54:13;5.10;;;3.00;;
73951;SDS011;62304;47.662;18.324;2023-08-30T17:57:20;6.77;;;3.07;;
73951;SDS011;62304;47.662;18.324;2023-08-30T18:00:23;5.80;;;3.42;;
73951;SDS011;62304;47.662;18.324;2023-08-30T18:03:28;5.07;;;3.25;;
73951;SDS011;62304;47.662;18.324;2023-08-30T18:06:33;6.53;;;3.45;;
73951;SDS011;62304;47.662;18.324;2023-08-30T18:09:37;6.15;;;3.35;;
73951;SDS011;62304;47.662;18.324;2023-08-30T18:12:44;5.10;;;3.00;;
73951;SDS011;62304;47.662;18.324;2023-08-30T18:15:55;6.55;;;3.30;;
73951;SDS011;62304;47.662;18.324;2023-08-30T18:18:58;6.28;;;3.50;;